Date,TemperatureHighF,TemperatureAvgF,TemperatureLowF,DewpointHighF,DewpointAvgF,DewpointLowF,HumidityHigh,HumidityAvg,HumidityLow,PressureMaxIn,PressureMinIn,WindSpeedMaxMPH,WindSpeedAvgMPH,GustSpeedMaxMPH,PrecipitationSumIn
2013-2-1,43.9,38.9,33.7,37.7,35.6,31.8,95,88,75,29.65,29.36,17,11,28,0.06
2013-2-2,35.7,33.0,29.8,33.8,29.7,25.6,97,88,80,30.15,29.65,18,12,29,0.09
2013-2-3,46.3,40.7,30.7,43.4,37.1,25.6,93,87,76,30.10,29.59,25,14,38,0.01
2013-2-4,47.4,39.9,33.0,44.6,35.3,29.6,94,84,71,29.63,29.40,30,18,43,0.01
2013-2-5,38.4,34.0,30.5,35.7,31.2,27.8,95,89,80,29.40,29.08,20,13,32,0.04
2013-2-6,37.5,35.0,32.1,36.4,33.1,30.2,96,93,87,30.01,29.32,25,14,37,0.14
2013-2-7,35.9,33.2,29.7,30.6,28.9,26.2,88,84,78,30.04,29.95,17,10,23,0.00
2013-2-8,40.5,34.4,31.1,35.8,32.0,28.6,97,91,82,30.12,30.00,20,7,27,0.05
2013-2-9,41.8,35.6,32.0,36.3,32.8,30.2,96,90,79,30.10,29.81,7,3,12,0.01
2013-2-10,35.6,33.2,30.3,34.6,31.7,28.8,98,94,91,29.81,29.38,13,6,23,0.02
2013-2-11,35.1,34.0,32.8,31.7,29.5,28.2,93,83,78,29.89,29.43,8,5,22,0.01
2013-2-12,34.3,33.3,31.7,30.7,29.0,27.9,91,84,79,30.11,29.89,5,1,12,0.00
2013-2-13,32.2,30.3,28.3,30.9,27.2,24.4,96,88,76,30.12,29.68,23,9,36,0.02
2013-2-14,44.5,38.9,32.3,41.4,36.9,31.0,97,93,88,29.83,29.63,16,10,27,0.16
2013-2-15,44.9,40.6,38.3,40.4,37.0,34.5,91,87,80,30.13,29.83,17,8,23,0.00
2013-2-16,46.4,40.6,36.8,39.3,36.2,33.7,91,84,74,30.17,30.12,6,2,12,0.00
2013-2-17,44.9,38.0,32.4,36.9,33.6,30.1,96,84,66,30.15,30.10,7,2,15,0.00
2013-2-18,41.9,35.4,30.9,35.2,32.2,28.9,97,88,74,30.15,30.08,10,3,15,0.00
2013-2-19,39.8,36.7,33.4,36.7,33.6,27.6,97,89,73,30.14,30.06,10,3,17,0.00
2013-2-20,37.9,34.4,32.2,37.1,30.8,27.4,97,87,79,30.33,30.14,8,5,20,0.00
2013-2-21,34.3,32.4,31.3,28.4,26.3,23.6,85,78,71,30.34,30.26,7,2,14,0.00
2013-2-22,33.5,32.3,31.3,30.4,26.2,23.5,94,78,72,30.27,30.19,6,2,13,0.00
2013-2-23,34.4,32.1,30.4,31.8,28.5,24.4,97,87,71,30.29,30.17,6,2,13,0.09
2013-2-24,38.3,34.7,32.2,34.5,29.1,25.5,90,80,68,30.38,30.28,8,4,18,0.03
2013-2-25,39.0,37.5,35.8,36.5,34.8,32.6,95,90,84,30.54,30.37,8,5,18,0.00
2013-2-26,37.8,36.5,34.0,34.6,33.6,31.5,91,89,86,30.66,30.53,6,2,14,0.00
2013-2-27,42.3,36.6,33.0,38.1,32.9,23.2,100,87,57,30.66,30.56,5,1,7,0.00
2013-2-28,39.8,36.4,30.3,38.4,33.3,22.9,97,89,60,30.56,30.45,6,3,13,0.00